createdAt,value
2018-07-27T00:02:05.704Z,4.50
2018-07-27T00:04:32.700Z,4.13
2018-07-27T00:06:59.726Z,4.47
2018-07-27T00:09:26.732Z,4.47
2018-07-27T00:11:53.811Z,4.87
2018-07-27T00:14:20.837Z,4.40
2018-07-27T00:16:47.816Z,4.77
2018-07-27T00:19:14.803Z,4.57
2018-07-27T00:21:41.842Z,4.53
2018-07-27T00:24:08.825Z,4.60
2018-07-27T00:26:35.813Z,4.63
2018-07-27T00:29:02.845Z,4.20
2018-07-27T00:31:29.835Z,4.57
2018-07-27T00:33:56.911Z,4.47
2018-07-27T00:36:23.935Z,4.07
2018-07-27T00:41:31.343Z,5.07
2018-07-27T00:43:58.328Z,4.30
2018-07-27T00:46:25.315Z,4.03
2018-07-27T00:48:52.427Z,4.47
2018-07-27T00:51:19.416Z,4.93
2018-07-27T00:53:46.404Z,4.53
2018-07-27T00:56:13.428Z,4.90
2018-07-27T00:58:40.411Z,4.23
2018-07-27T01:01:07.409Z,4.40
2018-07-27T01:03:34.469Z,4.43
2018-07-27T01:06:01.451Z,4.63
2018-07-27T01:08:28.441Z,4.40
2018-07-27T01:10:55.470Z,4.03
2018-07-27T01:13:22.465Z,4.30
2018-07-27T01:15:49.451Z,4.50
2018-07-27T01:18:16.480Z,5.10
2018-07-27T01:20:43.463Z,5.13
2018-07-27T01:23:11.299Z,4.93
2018-07-27T01:25:38.356Z,4.97
2018-07-27T01:28:05.336Z,5.30
2018-07-27T01:30:32.315Z,4.60
2018-07-27T01:32:59.350Z,5.00
2018-07-27T01:35:26.324Z,4.97
2018-07-27T01:37:53.303Z,4.90
2018-07-27T01:40:20.323Z,4.63
2018-07-27T01:42:47.316Z,5.20
2018-07-27T01:45:14.327Z,5.20
2018-07-27T01:47:41.412Z,5.57
2018-07-27T01:50:08.407Z,5.73
2018-07-27T01:52:35.479Z,5.20
2018-07-27T01:55:02.509Z,5.70
2018-07-27T02:00:08.004Z,6.10
2018-07-27T02:02:34.991Z,4.60
2018-07-27T02:05:01.972Z,5.20
2018-07-27T02:07:29.848Z,5.10
2018-07-27T02:09:56.849Z,4.80
2018-07-27T02:12:23.831Z,5.07
2018-07-27T02:14:50.870Z,4.90
2018-07-27T02:17:17.856Z,4.77
2018-07-27T02:19:44.860Z,4.63
2018-07-27T02:22:11.928Z,4.60
2018-07-27T02:24:38.915Z,4.50
2018-07-27T02:27:05.909Z,5.10
2018-07-27T02:29:32.947Z,5.40
2018-07-27T02:31:59.940Z,4.83
2018-07-27T02:34:26.947Z,5.23
2018-07-27T02:36:54.608Z,5.03
2018-07-27T02:39:21.603Z,5.00
2018-07-27T02:41:48.601Z,5.23
2018-07-27T02:44:15.658Z,5.07
2018-07-27T02:46:42.653Z,5.07
2018-07-27T02:49:09.726Z,4.67
2018-07-27T02:51:36.760Z,5.20
2018-07-27T02:54:04.596Z,4.60
2018-07-27T02:56:32.526Z,5.57
2018-07-27T02:58:59.557Z,5.60
2018-07-27T03:01:26.548Z,4.97
2018-07-27T03:03:53.526Z,5.40
2018-07-27T03:06:20.592Z,5.00
2018-07-27T03:08:47.575Z,5.33
2018-07-27T03:11:14.564Z,4.73
2018-07-27T03:13:41.590Z,5.17
2018-07-27T03:16:08.668Z,5.57
2018-07-27T03:21:14.173Z,6.00
2018-07-27T03:23:41.167Z,5.33
2018-07-27T03:26:08.165Z,5.40
2018-07-27T03:28:35.208Z,5.33
2018-07-27T03:31:02.203Z,5.30
2018-07-27T03:33:29.299Z,5.20
2018-07-27T03:35:56.327Z,5.10
2018-07-27T03:38:23.313Z,5.60
2018-07-27T03:40:50.296Z,5.30
2018-07-27T03:43:17.602Z,5.97
2018-07-27T03:45:44.604Z,6.00
2018-07-27T03:48:11.593Z,5.40
2018-07-27T03:50:38.651Z,5.03
2018-07-27T03:53:05.716Z,6.40
2018-07-27T03:55:32.700Z,5.40
2018-07-27T03:57:59.737Z,6.00
2018-07-27T04:00:26.729Z,5.90
2018-07-27T04:02:53.715Z,4.90
2018-07-27T04:05:20.863Z,5.30
2018-07-27T04:07:47.876Z,5.40
2018-07-27T04:10:14.876Z,5.20
2018-07-27T04:12:41.895Z,6.27
2018-07-27T04:15:09.762Z,5.60
2018-07-27T04:17:36.755Z,5.93
2018-07-27T04:20:03.789Z,6.73
2018-07-27T04:22:30.844Z,6.03
2018-07-27T04:24:57.779Z,6.93
2018-07-27T04:27:24.840Z,6.17
2018-07-27T04:29:51.826Z,6.27
2018-07-27T04:32:18.803Z,6.00
2018-07-27T04:34:45.827Z,5.77
2018-07-27T04:37:12.920Z,6.40
2018-07-27T04:42:18.434Z,6.60
2018-07-27T04:44:45.419Z,6.63
2018-07-27T04:47:12.398Z,5.83
2018-07-27T04:49:39.466Z,5.97
2018-07-27T04:52:06.448Z,5.93
2018-07-27T04:54:33.440Z,6.60
2018-07-27T04:57:00.477Z,6.83
2018-07-27T04:59:27.463Z,6.30
2018-07-27T05:01:54.457Z,6.33
2018-07-27T05:04:21.493Z,6.40
2018-07-27T05:06:48.471Z,6.23
2018-07-27T05:09:16.224Z,7.17
2018-07-27T05:11:43.315Z,6.73
2018-07-27T05:14:10.256Z,6.87
2018-07-27T05:16:37.245Z,6.33
2018-07-27T05:19:04.273Z,7.43
2018-07-27T05:21:32.220Z,6.67
2018-07-27T05:23:59.216Z,6.63
2018-07-27T05:26:26.246Z,7.00
2018-07-27T05:28:53.236Z,6.60
2018-07-27T05:31:21.384Z,6.30
2018-07-27T05:33:47.911Z,6.57
2018-07-27T05:36:14.894Z,6.80
2018-07-27T05:38:41.880Z,6.17
2018-07-27T05:41:08.918Z,6.80
2018-07-27T05:43:36.056Z,7.23
2018-07-27T05:46:02.985Z,7.23
2018-07-27T05:48:30.107Z,7.00
2018-07-27T05:50:57.147Z,7.43
2018-07-27T05:53:24.161Z,6.90
2018-07-27T05:58:30.668Z,7.55
2018-07-27T06:00:57.754Z,7.13
2018-07-27T06:03:24.769Z,7.37
2018-07-27T06:05:51.778Z,6.87
2018-07-27T06:08:18.908Z,7.03
2018-07-27T06:10:45.892Z,7.10
2018-07-27T06:13:12.898Z,6.60
2018-07-27T06:15:39.973Z,6.87
2018-07-27T06:18:07.053Z,6.70
2018-07-27T06:20:33.987Z,6.60
2018-07-27T06:23:01.467Z,6.10
2018-07-27T06:25:28.128Z,6.40
2018-07-27T06:27:55.128Z,6.10
2018-07-27T06:30:22.184Z,6.00
2018-07-27T06:32:49.280Z,5.90
2018-07-27T06:35:16.288Z,5.93
2018-07-27T06:37:43.335Z,6.03
2018-07-27T06:40:10.342Z,6.27
2018-07-27T06:42:37.337Z,6.30
2018-07-27T06:45:04.421Z,5.80
2018-07-27T06:47:31.420Z,6.63
2018-07-27T06:49:58.441Z,6.17
2018-07-27T06:52:25.526Z,5.67
2018-07-27T06:54:52.511Z,5.77
2018-07-27T06:57:20.464Z,6.00
2018-07-27T06:59:47.506Z,5.60
2018-07-27T07:02:14.593Z,5.93
2018-07-27T07:04:41.585Z,5.47
2018-07-27T07:07:08.624Z,6.03
2018-07-27T07:09:35.615Z,5.67
2018-07-27T07:12:02.614Z,5.87
2018-07-27T07:14:30.559Z,5.63
2018-07-27T07:16:57.504Z,5.43
2018-07-27T07:22:05.050Z,5.90
2018-07-27T07:24:32.137Z,5.90
2018-07-27T07:26:59.139Z,5.57
2018-07-27T07:29:26.201Z,5.20
2018-07-27T07:31:53.296Z,4.90
2018-07-27T07:34:20.291Z,4.87
2018-07-27T07:36:47.332Z,4.80
2018-07-27T07:39:14.469Z,4.77
2018-07-27T07:41:41.399Z,4.73
2018-07-27T07:44:08.465Z,4.83
2018-07-27T07:46:35.572Z,4.73
2018-07-27T07:49:02.591Z,4.97
2018-07-27T07:51:29.588Z,4.93
2018-07-27T07:53:56.575Z,4.67
2018-07-27T07:56:23.582Z,4.60
2018-07-27T07:58:50.611Z,4.40
2018-07-27T08:01:17.646Z,4.83
2018-07-27T08:03:44.632Z,4.97
2018-07-27T08:06:11.684Z,4.67
2018-07-27T08:08:38.670Z,4.77
2018-07-27T08:11:05.718Z,4.03
2018-07-27T08:13:32.726Z,4.70
2018-07-27T08:16:00.215Z,4.93
2018-07-27T08:18:27.235Z,4.80
2018-07-27T08:20:54.275Z,4.80
2018-07-27T08:23:21.275Z,4.20
2018-07-27T08:28:29.797Z,4.93
2018-07-27T08:30:56.797Z,4.87
2018-07-27T08:33:23.777Z,4.13
2018-07-27T08:35:50.845Z,5.07
2018-07-27T08:38:17.842Z,4.63
2018-07-27T08:40:44.838Z,4.60
2018-07-27T08:43:11.907Z,4.60
2018-07-27T08:45:38.892Z,4.90
2018-07-27T08:48:05.895Z,5.20
2018-07-27T08:50:32.926Z,4.83
2018-07-27T08:52:59.923Z,4.50
2018-07-27T08:55:26.927Z,4.40
2018-07-27T08:57:53.985Z,4.63
2018-07-27T09:00:21.072Z,4.70
2018-07-27T09:02:48.068Z,4.60
2018-07-27T09:05:15.121Z,4.87
2018-07-27T09:07:42.109Z,4.30
2018-07-27T09:10:09.106Z,5.13
2018-07-27T09:12:36.232Z,4.60
2018-07-27T09:15:03.224Z,4.97
2018-07-27T09:17:30.205Z,4.63
2018-07-27T09:19:57.901Z,4.37
2018-07-27T09:22:24.771Z,4.87
2018-07-27T09:24:51.973Z,4.40
2018-07-27T09:27:18.895Z,4.80
2018-07-27T09:29:45.883Z,5.17
2018-07-27T09:32:12.882Z,4.60
2018-07-27T09:34:39.936Z,5.17
2018-07-27T09:37:06.901Z,4.97
2018-07-27T09:39:33.893Z,4.83
2018-07-27T09:42:00.931Z,4.37
2018-07-27T09:44:27.968Z,4.53
2018-07-27T09:49:33.491Z,4.07
2018-07-27T09:52:00.474Z,3.47
2018-07-27T09:54:27.457Z,4.20
2018-07-27T09:56:54.486Z,3.77
2018-07-27T09:59:21.484Z,3.80
2018-07-27T10:01:48.461Z,3.60
2018-07-27T10:04:15.481Z,4.20
2018-07-27T10:06:42.473Z,3.80
2018-07-27T10:09:09.462Z,3.90
2018-07-27T10:11:36.548Z,3.63
2018-07-27T10:14:03.532Z,4.33
2018-07-27T10:16:30.544Z,4.07
2018-07-27T10:18:57.573Z,4.03
2018-07-27T10:21:24.553Z,3.87
2018-07-27T10:23:51.548Z,3.47
2018-07-27T10:26:18.676Z,3.80
2018-07-27T10:28:45.655Z,3.60
2018-07-27T10:31:12.689Z,3.33
2018-07-27T10:33:39.702Z,3.45
2018-07-27T10:36:06.680Z,3.53
2018-07-27T10:38:33.697Z,3.15
2018-07-27T10:41:00.713Z,2.30
2018-07-27T10:43:27.722Z,2.75
2018-07-27T10:45:54.700Z,2.78
2018-07-27T10:48:21.772Z,2.67
2018-07-27T10:50:48.762Z,2.97
2018-07-27T10:53:15.743Z,2.87
2018-07-27T10:55:42.769Z,2.90
2018-07-27T10:58:09.762Z,2.70
2018-07-27T11:00:36.754Z,2.80
2018-07-27T11:03:03.816Z,2.47
2018-07-27T11:08:09.322Z,2.80
2018-07-27T11:10:36.319Z,2.87
2018-07-27T11:13:03.333Z,2.97
2018-07-27T11:15:30.390Z,2.50
2018-07-27T11:17:57.700Z,2.75
2018-07-27T11:20:24.693Z,2.60
2018-07-27T11:22:51.726Z,2.95
2018-07-27T11:25:18.712Z,2.90
2018-07-27T11:27:45.712Z,2.50
2018-07-27T11:30:12.733Z,2.55
2018-07-27T11:32:39.711Z,2.40
2018-07-27T11:35:06.696Z,2.97
2018-07-27T11:37:33.743Z,2.47
2018-07-27T11:40:00.726Z,2.30
2018-07-27T11:42:27.731Z,2.12
2018-07-27T11:44:55.584Z,2.30
2018-07-27T11:47:23.395Z,2.30
2018-07-27T11:49:50.381Z,2.50
2018-07-27T11:52:17.434Z,2.28
2018-07-27T11:54:44.416Z,2.75
2018-07-27T11:57:12.283Z,2.47
2018-07-27T11:59:40.195Z,2.30
2018-07-27T12:02:07.188Z,2.62
2018-07-27T12:04:34.172Z,2.10
2018-07-27T12:07:01.256Z,2.45
2018-07-27T12:09:28.178Z,2.30
2018-07-27T12:11:55.155Z,2.30
2018-07-27T12:14:23.376Z,2.40
2018-07-27T12:16:50.149Z,2.42
2018-07-27T12:19:17.139Z,2.80
2018-07-27T12:21:44.342Z,4.45
2018-07-27T12:26:49.692Z,1.83
2018-07-27T12:29:16.690Z,2.08
2018-07-27T12:31:43.756Z,2.33
2018-07-27T12:34:10.790Z,1.77
2018-07-27T12:36:37.768Z,1.60
2018-07-27T12:39:04.790Z,1.40
2018-07-27T12:41:31.803Z,1.73
2018-07-27T12:43:58.786Z,1.80
2018-07-27T12:46:25.806Z,1.62
2018-07-27T12:48:52.953Z,1.52
2018-07-27T12:51:20.063Z,1.65
2018-07-27T12:53:47.027Z,1.50
2018-07-27T12:56:14.032Z,1.80
2018-07-27T12:58:41.015Z,1.90
2018-07-27T13:01:07.997Z,1.52
2018-07-27T13:03:35.057Z,1.50
2018-07-27T13:06:02.064Z,1.90
2018-07-27T13:08:29.054Z,1.40
2018-07-27T13:10:56.079Z,1.92
2018-07-27T13:13:23.115Z,1.85
2018-07-27T13:15:50.076Z,1.58
2018-07-27T13:18:17.112Z,2.00
2018-07-27T13:20:44.095Z,1.65
2018-07-27T13:23:11.090Z,1.70
2018-07-27T13:25:38.148Z,1.80
2018-07-27T13:30:32.321Z,1.90
2018-07-27T13:35:26.138Z,1.80
2018-07-27T13:40:34.479Z,2.10
2018-07-27T13:43:01.465Z,1.73
2018-07-27T13:45:28.446Z,2.05
2018-07-27T13:47:55.476Z,2.10
2018-07-27T13:50:22.455Z,2.20
2018-07-27T13:52:49.435Z,2.10
2018-07-27T13:55:16.479Z,2.33
2018-07-27T13:57:43.456Z,2.45
2018-07-27T14:00:10.433Z,2.17
2018-07-27T14:02:37.507Z,2.37
2018-07-27T14:05:04.492Z,2.28
2018-07-27T14:07:31.484Z,2.30
2018-07-27T14:09:58.510Z,2.33
2018-07-27T14:12:25.493Z,2.83
2018-07-27T14:14:52.473Z,2.35
2018-07-27T14:17:19.501Z,2.28
2018-07-27T14:19:46.573Z,2.25
2018-07-27T14:22:13.563Z,2.40
2018-07-27T14:24:40.624Z,1.92
2018-07-27T14:27:07.616Z,2.15
2018-07-27T14:29:34.616Z,2.10
2018-07-27T14:32:01.640Z,2.50
2018-07-27T14:34:28.618Z,2.00
2018-07-27T14:36:55.707Z,2.05
2018-07-27T14:39:22.747Z,2.30
2018-07-27T14:41:49.731Z,2.20
2018-07-27T14:44:16.743Z,2.10
2018-07-27T14:46:43.759Z,2.00
2018-07-27T14:49:10.839Z,2.58
2018-07-27T14:54:18.657Z,2.60
2018-07-27T14:56:45.641Z,2.30
2018-07-27T14:59:12.644Z,2.40
2018-07-27T15:01:39.669Z,2.40
2018-07-27T15:04:06.643Z,2.50
2018-07-27T15:06:33.632Z,2.12
2018-07-27T15:09:00.699Z,2.22
2018-07-27T15:11:27.648Z,2.40
2018-07-27T15:13:54.630Z,2.47
2018-07-27T15:16:22.523Z,2.40
2018-07-27T15:18:50.331Z,2.70
2018-07-27T15:21:17.315Z,2.67
2018-07-27T15:23:44.377Z,2.30
2018-07-27T15:26:12.199Z,2.05
2018-07-27T15:28:40.130Z,2.50
2018-07-27T15:31:08.094Z,2.25
2018-07-27T15:33:35.024Z,2.80
2018-07-27T15:36:02.004Z,2.42
2018-07-27T15:38:29.060Z,2.65
2018-07-27T15:40:56.044Z,2.75
2018-07-27T15:43:23.029Z,2.67
2018-07-27T15:45:50.057Z,2.83
2018-07-27T15:48:17.206Z,2.67
2018-07-27T15:50:44.134Z,2.67
2018-07-27T15:53:11.170Z,2.95
2018-07-27T15:55:38.170Z,3.17
2018-07-27T15:58:05.166Z,2.85
2018-07-27T16:00:32.209Z,2.90
2018-07-27T16:05:39.731Z,3.20
2018-07-27T16:08:06.722Z,3.33
2018-07-27T16:10:34.443Z,3.08
2018-07-27T16:13:02.409Z,3.17
2018-07-27T16:15:29.389Z,3.33
2018-07-27T16:17:56.372Z,3.20
2018-07-27T16:20:23.401Z,3.35
2018-07-27T16:22:50.392Z,2.80
2018-07-27T16:25:17.384Z,2.70
2018-07-27T16:27:44.419Z,2.85
2018-07-27T16:30:11.412Z,2.70
2018-07-27T16:32:38.391Z,3.12
2018-07-27T16:35:05.450Z,3.28
2018-07-27T16:37:32.430Z,2.78
2018-07-27T16:39:59.418Z,3.10
2018-07-27T16:42:27.275Z,3.22
2018-07-27T16:44:54.274Z,3.15
2018-07-27T16:47:21.240Z,3.20
2018-07-27T16:49:48.292Z,3.17
2018-07-27T16:52:15.269Z,3.20
2018-07-27T16:54:42.250Z,3.00
2018-07-27T16:57:09.292Z,3.40
2018-07-27T16:59:36.293Z,3.00
2018-07-27T17:02:03.973Z,3.05
2018-07-27T17:04:31.077Z,3.62
2018-07-27T17:06:58.946Z,3.33
2018-07-27T17:09:25.940Z,2.97
2018-07-27T17:11:52.968Z,3.35
2018-07-27T17:17:01.817Z,3.37
2018-07-27T17:19:28.789Z,3.45
2018-07-27T17:21:55.773Z,2.80
2018-07-27T17:24:22.793Z,3.33
2018-07-27T17:26:49.778Z,3.10
2018-07-27T17:29:16.758Z,3.45
2018-07-27T17:31:43.791Z,3.42
2018-07-27T17:34:10.776Z,2.93
2018-07-27T17:36:37.759Z,3.77
2018-07-27T17:39:04.785Z,3.30
2018-07-27T17:41:31.779Z,3.40
2018-07-27T17:43:58.772Z,3.20
2018-07-27T17:46:25.829Z,3.10
2018-07-27T17:48:53.059Z,2.80
2018-07-27T17:51:19.991Z,3.37
2018-07-27T17:53:47.054Z,3.63
2018-07-27T17:56:14.059Z,3.50
2018-07-27T17:58:41.115Z,3.07
2018-07-27T18:01:08.664Z,3.27
2018-07-27T18:03:35.649Z,3.40
2018-07-27T18:06:02.660Z,3.50
2018-07-27T18:08:29.757Z,3.80
2018-07-27T18:10:56.743Z,3.40
2018-07-27T18:13:24.489Z,3.40
2018-07-27T18:15:51.523Z,3.70
2018-07-27T18:18:18.551Z,3.20
2018-07-27T18:20:45.540Z,3.70
2018-07-27T18:23:12.598Z,2.97
2018-07-27T18:25:39.651Z,3.60
2018-07-27T18:28:06.642Z,3.37
2018-07-27T18:30:33.686Z,3.57
2018-07-27T18:33:00.703Z,3.30
2018-07-27T18:35:27.703Z,3.63
2018-07-27T18:37:54.737Z,3.63
2018-07-27T18:43:00.347Z,3.80
2018-07-27T18:45:27.343Z,3.37
2018-07-27T18:47:54.340Z,3.53
2018-07-27T18:50:21.401Z,3.47
2018-07-27T18:52:48.391Z,3.77
2018-07-27T18:55:16.212Z,3.43
2018-07-27T18:57:43.315Z,3.53
2018-07-27T19:00:10.504Z,3.30
2018-07-27T19:02:37.529Z,3.50
2018-07-27T19:05:04.602Z,3.60
2018-07-27T19:07:31.613Z,3.23
2018-07-27T19:09:58.595Z,3.10
2018-07-27T19:12:25.660Z,3.10
2018-07-27T19:14:53.626Z,3.60
2018-07-27T19:17:20.614Z,3.60
2018-07-27T19:19:47.672Z,3.17
2018-07-27T19:22:14.660Z,3.10
2018-07-27T19:24:41.966Z,3.20
2018-07-27T19:27:09.039Z,3.43
2018-07-27T19:29:36.151Z,3.50
2018-07-27T19:32:03.260Z,3.50
2018-07-27T19:34:30.390Z,3.60
2018-07-27T19:36:57.544Z,3.70
2018-07-27T19:39:24.501Z,3.20
2018-07-27T19:41:51.559Z,3.70
2018-07-27T19:44:18.767Z,3.27
2018-07-27T19:46:45.714Z,3.67
2018-07-27T19:49:13.710Z,4.20
2018-07-27T19:51:40.850Z,4.00
2018-07-27T19:54:07.854Z,4.27
2018-07-27T19:56:34.914Z,4.30
2018-07-27T19:59:01.898Z,4.30
2018-07-27T20:01:28.894Z,4.40
2018-07-27T20:06:36.437Z,4.87
2018-07-27T20:09:03.497Z,5.20
2018-07-27T20:11:30.481Z,4.90
2018-07-27T20:13:57.472Z,4.53
2018-07-27T20:16:24.859Z,5.00
2018-07-27T20:18:51.848Z,4.87
2018-07-27T20:21:18.850Z,4.40
2018-07-27T20:23:45.905Z,4.27
2018-07-27T20:26:12.949Z,4.13
2018-07-27T20:28:39.937Z,4.07
2018-07-27T20:31:06.997Z,4.57
2018-07-27T20:33:34.950Z,3.83
2018-07-27T20:36:02.021Z,4.30
2018-07-27T20:38:29.046Z,4.53
2018-07-27T20:40:56.030Z,3.40
2018-07-27T20:43:23.022Z,3.97
2018-07-27T20:45:50.117Z,3.90
2018-07-27T20:48:17.103Z,3.77
2018-07-27T20:50:44.087Z,4.20
2018-07-27T20:53:11.183Z,3.67
2018-07-27T20:55:38.156Z,4.20
2018-07-27T20:58:05.140Z,4.23
2018-07-27T21:00:32.170Z,4.10
2018-07-27T21:02:59.155Z,4.20
2018-07-27T21:05:26.164Z,4.07
2018-07-27T21:07:53.192Z,4.37
2018-07-27T21:10:20.214Z,4.10
2018-07-27T21:12:47.216Z,4.40
2018-07-27T21:15:14.310Z,4.10
2018-07-27T21:17:41.379Z,4.43
2018-07-27T21:20:08.381Z,4.00
2018-07-27T21:22:35.400Z,4.03
2018-07-27T21:25:02.410Z,4.60
2018-07-27T21:27:29.398Z,4.87
2018-07-27T21:29:56.451Z,4.27
2018-07-27T21:34:58.969Z,4.40
2018-07-27T21:37:26.058Z,4.67
2018-07-27T21:39:52.966Z,4.77
2018-07-27T21:42:20.011Z,4.30
2018-07-27T21:44:47.088Z,4.10
2018-07-27T21:47:14.071Z,4.50
2018-07-27T21:49:41.143Z,4.57
2018-07-27T21:54:47.779Z,4.70
2018-07-27T21:57:14.783Z,4.00
2018-07-27T21:59:42.599Z,4.17
2018-07-27T22:02:09.632Z,4.50
2018-07-27T22:04:36.620Z,4.47
2018-07-27T22:07:03.737Z,4.80
2018-07-27T22:09:30.795Z,4.83
2018-07-27T22:11:57.772Z,4.53
2018-07-27T22:14:24.779Z,4.40
2018-07-27T22:16:51.839Z,4.67
2018-07-27T22:19:18.820Z,4.70
2018-07-27T22:21:45.802Z,4.40
2018-07-27T22:24:12.836Z,4.00
2018-07-27T22:26:39.829Z,4.37
2018-07-27T22:29:06.830Z,4.47
2018-07-27T22:31:33.856Z,4.57
2018-07-27T22:34:00.900Z,4.23
2018-07-27T22:36:27.887Z,4.43
2018-07-27T22:38:54.982Z,4.70
2018-07-27T22:41:21.968Z,4.80
2018-07-27T22:43:48.967Z,4.80
2018-07-27T22:46:15.980Z,4.70
2018-07-27T22:48:42.967Z,4.53
2018-07-27T22:51:09.950Z,4.50
2018-07-27T22:53:37.044Z,4.77
2018-07-27T22:56:04.028Z,4.47
2018-07-27T22:58:31.018Z,4.40
2018-07-27T23:00:58.052Z,4.03
2018-07-27T23:03:25.064Z,4.47
2018-07-27T23:05:52.055Z,4.47
2018-07-27T23:08:19.269Z,4.10
2018-07-27T23:10:46.185Z,4.30
2018-07-27T23:15:51.693Z,4.97
2018-07-27T23:18:19.516Z,4.53
2018-07-27T23:20:46.501Z,4.80
2018-07-27T23:23:13.520Z,4.37
2018-07-27T23:25:40.520Z,4.30
2018-07-27T23:28:07.737Z,4.43
2018-07-27T23:30:34.657Z,4.50
2018-07-27T23:33:02.490Z,3.83
2018-07-27T23:35:29.457Z,4.93
2018-07-27T23:37:56.479Z,4.97
2018-07-27T23:40:23.494Z,4.67
2018-07-27T23:42:50.483Z,6.03
2018-07-27T23:45:17.533Z,5.57
2018-07-27T23:47:44.527Z,5.27
2018-07-27T23:50:11.528Z,6.23
2018-07-27T23:52:38.559Z,6.57
2018-07-27T23:55:05.550Z,6.03
2018-07-27T23:57:32.546Z,5.50
2018-07-27T23:59:59.601Z,5.73
